Time;durP1;ratioP1;P1;durP2;ratioP2;P2;SDS_P1;SDS_P2;PMS_P1;PMS_P2;Temp;Humidity;BMP_temperature;BMP_pressure;BME280_temperature;BME280_humidity;BME280_pressure;Samples;Min_cycle;Max_cycle;Signal;HPM_P1;HPM_P2
2024/01/10 00:00:14;;;;;;;48.65;24.02;;;-4.10;80.50;;;;;;5017570;28;20045;-63
2024/01/10 00:02:40;;;;;;;53.45;24.90;;;-4.10;80.50;;;;;;5021650;28;20455;-63
2024/01/10 00:05:06;;;;;;;50.55;23.42;;;-4.10;80.40;;;;;;5016529;28;20036;-62
2024/01/10 00:07:32;;;;;;;50.72;23.77;;;-4.00;80.40;;;;;;5023083;28;20543;-62
2024/01/10 00:09:59;;;;;;;52.10;23.92;;;-4.00;80.40;;;;;;5022054;28;20037;-63
2024/01/10 00:12:25;;;;;;;49.95;23.90;;;-4.00;80.50;;;;;;5017133;28;20063;-63
2024/01/10 00:14:51;;;;;;;50.00;22.80;;;-4.00;80.60;;;;;;5015960;28;20564;-62
2024/01/10 00:17:16;;;;;;;51.30;24.45;;;-4.00;80.60;;;;;;5017957;28;20034;-63
2024/01/10 00:19:42;;;;;;;52.83;24.83;;;-3.90;80.60;;;;;;5015962;28;20030;-62
2024/01/10 00:22:07;;;;;;;52.20;23.98;;;-3.90;80.60;;;;;;5018814;28;20033;-62
2024/01/10 00:24:33;;;;;;;49.38;23.42;;;-3.90;80.50;;;;;;5021158;28;20120;-62
2024/01/10 00:26:58;;;;;;;53.88;24.55;;;-3.90;80.40;;;;;;5023199;28;20107;-63
2024/01/10 00:29:24;;;;;;;53.15;25.48;;;-3.90;80.40;;;;;;5020327;28;20113;-62
2024/01/10 00:31:51;;;;;;;50.67;24.50;;;-3.80;80.40;;;;;;5025266;28;20042;-63
2024/01/10 00:34:16;;;;;;;53.55;24.85;;;-3.90;80.40;;;;;;5025501;28;20045;-61
2024/01/10 00:36:42;;;;;;;50.53;23.13;;;-3.80;80.40;;;;;;5021264;28;20095;-62
2024/01/10 00:39:07;;;;;;;51.60;24.90;;;-3.80;80.40;;;;;;5021391;28;20026;-63
2024/01/10 00:41:33;;;;;;;51.25;25.23;;;-3.80;80.40;;;;;;5022711;28;20042;-61
2024/01/10 00:43:58;;;;;;;55.33;25.90;;;-3.70;80.40;;;;;;5023610;28;20108;-63
2024/01/10 00:46:24;;;;;;;51.03;24.35;;;-3.70;80.30;;;;;;5023058;28;20467;-63
2024/01/10 00:48:50;;;;;;;49.85;24.70;;;-3.70;80.30;;;;;;5023846;28;20300;-63
2024/01/10 00:51:15;;;;;;;51.97;25.13;;;-3.70;80.30;;;;;;5023811;28;20125;-61
2024/01/10 00:53:42;;;;;;;53.95;24.70;;;-3.70;80.20;;;;;;5020679;28;20515;-61
2024/01/10 00:56:07;;;;;;;47.90;23.50;;;-3.80;80.40;;;;;;5022053;28;20029;-61
2024/01/10 00:58:33;;;;;;;51.97;24.52;;;-3.70;80.60;;;;;;5026776;28;20029;-62
2024/01/10 01:00:59;;;;;;;54.17;25.05;;;-3.70;80.70;;;;;;5023144;28;20041;-63
2024/01/10 01:03:24;;;;;;;54.10;25.70;;;-3.70;80.80;;;;;;5029397;28;20397;-62
2024/01/10 01:05:50;;;;;;;54.78;25.05;;;-3.70;81.60;;;;;;5024337;28;20041;-63
2024/01/10 01:08:15;;;;;;;51.50;25.98;;;-3.60;80.70;;;;;;5020613;28;20033;-63
2024/01/10 01:10:41;;;;;;;56.47;26.17;;;-3.60;80.70;;;;;;5025711;28;20029;-62
2024/01/10 01:13:07;;;;;;;55.15;24.95;;;-3.60;80.60;;;;;;5025952;28;20041;-61
2024/01/10 01:15:32;;;;;;;50.45;25.00;;;-3.60;80.70;;;;;;5024997;28;20567;-62
2024/01/10 01:17:58;;;;;;;52.08;25.30;;;-3.60;80.70;;;;;;5026786;28;20040;-62
2024/01/10 01:20:23;;;;;;;56.88;26.25;;;-3.50;81.70;;;;;;5015980;28;20037;-62
2024/01/10 01:22:49;;;;;;;53.00;24.27;;;-3.50;80.90;;;;;;5022970;28;20049;-63
2024/01/10 01:25:15;;;;;;;58.60;25.95;;;-3.50;80.90;;;;;;5023737;28;20033;-62
2024/01/10 01:27:40;;;;;;;55.35;25.88;;;-3.40;81.10;;;;;;5026189;28;20041;-62
2024/01/10 01:30:06;;;;;;;51.05;25.83;;;-3.40;81.10;;;;;;5022884;28;20037;-62
2024/01/10 01:32:32;;;;;;;56.42;26.30;;;-3.40;81.00;;;;;;5023761;28;20539;-62
2024/01/10 01:34:58;;;;;;;54.35;26.52;;;-3.30;81.10;;;;;;5022507;28;20041;-63
2024/01/10 01:37:23;;;;;;;51.78;25.10;;;-3.30;81.20;;;;;;5020915;28;20092;-63
2024/01/10 01:39:49;;;;;;;54.67;26.08;;;-3.30;81.10;;;;;;5018390;28;20045;-62
2024/01/10 01:42:15;;;;;;;59.38;27.15;;;-3.20;81.20;;;;;;5019468;28;20036;-61
2024/01/10 01:44:41;;;;;;;56.83;26.65;;;-3.20;81.10;;;;;;5021270;28;20037;-62
2024/01/10 01:47:06;;;;;;;59.67;26.55;;;-3.20;81.00;;;;;;5026915;28;20037;-62
2024/01/10 01:49:32;;;;;;;53.25;25.38;;;-3.20;81.00;;;;;;5025888;28;20452;-62
2024/01/10 01:51:59;;;;;;;55.70;26.23;;;-3.20;81.00;;;;;;5023160;28;20079;-61
2024/01/10 01:54:25;;;;;;;59.75;27.33;;;-3.10;81.10;;;;;;5023324;28;20045;-63
2024/01/10 01:56:51;;;;;;;49.58;24.05;;;-3.10;81.10;;;;;;5022278;28;20125;-62
2024/01/10 01:59:17;;;;;;;54.55;26.00;;;-3.10;81.10;;;;;;5025658;28;20264;-62
2024/01/10 02:01:43;;;;;;;58.20;25.67;;;-3.10;81.10;;;;;;5021461;28;20053;-63
2024/01/10 02:04:09;;;;;;;55.97;25.42;;;-3.10;80.90;;;;;;5023979;28;20057;-62
2024/01/10 02:06:34;;;;;;;51.65;25.20;;;-3.10;80.90;;;;;;5024883;28;20042;-62
2024/01/10 02:09:00;;;;;;;55.17;26.33;;;-3.00;80.90;;;;;;5022527;28;20397;-62
2024/01/10 02:11:26;;;;;;;51.53;25.50;;;-3.00;81.00;;;;;;5026080;28;20033;-63
2024/01/10 02:13:54;;;;;;;58.00;26.10;;;-3.00;81.10;;;;;;5019135;28;20030;-61
2024/01/10 02:16:20;;;;;;;51.90;25.25;;;-3.00;81.10;;;;;;5023071;28;20867;-62
2024/01/10 02:18:46;;;;;;;52.20;24.38;;;-3.00;81.20;;;;;;5021160;28;20489;-62
2024/01/10 02:21:11;;;;;;;49.35;24.17;;;-3.00;81.20;;;;;;5025259;28;20040;-62
2024/01/10 02:23:37;;;;;;;52.90;23.85;;;-3.00;81.10;;;;;;5025434;28;20113;-62
2024/01/10 02:26:03;;;;;;;55.05;24.67;;;-2.90;81.20;;;;;;5026758;28;20033;-63
2024/01/10 02:28:28;;;;;;;52.88;24.75;;;-2.90;81.10;;;;;;5017946;28;20518;-63
2024/01/10 02:30:55;;;;;;;48.17;22.88;;;-2.90;81.00;;;;;;5018589;28;20026;-62
2024/01/10 02:33:21;;;;;;;47.70;23.15;;;-2.90;80.90;;;;;;5023282;28;20045;-62
2024/01/10 02:35:46;;;;;;;50.30;24.83;;;-2.80;81.00;;;;;;5023717;28;20060;-61
2024/01/10 02:38:12;;;;;;;51.63;24.40;;;-2.80;81.10;;;;;;5026567;28;20068;-62
2024/01/10 02:40:37;;;;;;;50.03;24.92;;;-2.80;81.00;;;;;;5020495;28;20052;-62
2024/01/10 02:43:03;;;;;;;50.20;23.85;;;-2.80;81.10;;;;;;5023780;28;20648;-63
2024/01/10 02:45:29;;;;;;;51.53;24.98;;;-2.70;81.10;;;;;;5022594;28;20038;-61
2024/01/10 02:47:54;;;;;;;51.42;24.35;;;-2.70;80.90;;;;;;5020705;28;20057;-60
2024/01/10 02:50:20;;;;;;;52.80;24.83;;;-2.70;80.60;;;;;;5024224;28;20034;-61
2024/01/10 02:52:45;;;;;;;55.13;25.25;;;-2.60;80.50;;;;;;5020445;28;20132;-61
2024/01/10 02:55:11;;;;;;;53.50;24.85;;;-2.70;80.30;;;;;;5025895;28;20044;-61
2024/01/10 02:57:36;;;;;;;53.95;24.98;;;-2.70;80.40;;;;;;5020607;28;20671;-61
2024/01/10 03:00:04;;;;;;;49.97;24.33;;;-2.70;80.40;;;;;;5024443;28;20040;-62
2024/01/10 03:02:30;;;;;;;52.35;25.33;;;-2.70;80.30;;;;;;5028430;28;20029;-64
2024/01/10 03:04:55;;;;;;;48.92;23.88;;;-2.70;80.00;;;;;;5025031;28;20033;-62
2024/01/10 03:07:21;;;;;;;52.40;25.30;;;-2.70;80.00;;;;;;5025088;28;20029;-61
2024/01/10 03:09:46;;;;;;;49.05;24.42;;;-2.80;80.10;;;;;;5022216;28;20660;-61
2024/01/10 03:12:12;;;;;;;51.72;24.17;;;-2.80;80.20;;;;;;5020900;28;20477;-62
2024/01/10 03:14:37;;;;;;;50.13;24.65;;;-2.80;80.40;;;;;;5026738;28;20033;-62
2024/01/10 03:17:03;;;;;;;52.30;24.58;;;-2.80;80.40;;;;;;5023358;28;20084;-61
2024/01/10 03:19:29;;;;;;;53.05;24.92;;;-2.80;80.60;;;;;;5026892;28;20052;-61
2024/01/10 03:21:54;;;;;;;49.63;24.38;;;-2.80;80.60;;;;;;5024534;28;20028;-62
2024/01/10 03:24:20;;;;;;;55.28;24.40;;;-2.80;80.70;;;;;;5023698;28;20091;-62
2024/01/10 03:26:45;;;;;;;49.78;23.77;;;-2.70;80.80;;;;;;5023923;28;20036;-60
2024/01/10 03:29:11;;;;;;;52.50;24.23;;;-2.70;80.90;;;;;;5027092;28;20033;-62
2024/01/10 03:31:37;;;;;;;46.42;24.08;;;-2.70;80.80;;;;;;5025398;28;20121;-61
2024/01/10 03:34:03;;;;;;;48.65;23.48;;;-2.70;80.80;;;;;;5027173;28;20037;-62
2024/01/10 03:36:29;;;;;;;47.63;23.65;;;-2.70;80.80;;;;;;5021694;28;20525;-60
2024/01/10 03:38:54;;;;;;;48.58;23.95;;;-2.70;81.80;;;;;;5023482;28;20068;-62
2024/01/10 03:41:20;;;;;;;54.35;25.70;;;-2.60;81.10;;;;;;5022811;28;20076;-63
2024/01/10 03:43:47;;;;;;;58.55;25.52;;;-2.60;81.10;;;;;;5028711;28;20037;-62
2024/01/10 03:46:13;;;;;;;53.80;25.02;;;-2.60;81.00;;;;;;5025125;28;20349;-61
2024/01/10 03:48:47;;;;;;;46.88;23.02;;;-2.50;81.10;;;;;;5022435;28;20026;-63
2024/01/10 03:51:14;;;;;;;56.03;25.27;;;-2.50;81.00;;;;;;5021882;28;20557;-62
2024/01/10 03:53:40;;;;;;;47.97;23.48;;;-2.50;80.80;;;;;;5026183;28;20596;-62
2024/01/10 03:56:06;;;;;;;53.22;24.23;;;-2.50;80.70;;;;;;5024582;28;20041;-61
2024/01/10 03:58:32;;;;;;;51.90;24.50;;;-2.40;80.80;;;;;;5027648;28;20044;-63
2024/01/10 04:00:57;;;;;;;52.47;24.90;;;-2.50;80.70;;;;;;5023024;28;20034;-62
2024/01/10 04:03:23;;;;;;;51.88;24.98;;;-2.40;80.70;;;;;;5026656;28;20041;-62
2024/01/10 04:05:48;;;;;;;51.65;24.45;;;-2.40;80.70;;;;;;5025945;28;20168;-61
2024/01/10 04:08:14;;;;;;;53.78;24.55;;;-2.40;80.70;;;;;;5021775;28;20049;-62
2024/01/10 04:10:39;;;;;;;49.80;23.52;;;-2.40;80.90;;;;;;5021222;28;20564;-62
2024/01/10 04:13:05;;;;;;;52.00;25.88;;;-2.40;81.00;;;;;;5027241;28;20064;-62
2024/01/10 04:15:30;;;;;;;51.20;24.08;;;-2.30;81.10;;;;;;5032226;28;20025;-62
2024/01/10 04:17:56;;;;;;;50.88;24.30;;;-2.40;81.20;;;;;;5033044;28;20524;-62
2024/01/10 04:20:21;;;;;;;54.67;24.95;;;-2.30;81.30;;;;;;5029805;28;20560;-62
2024/01/10 04:22:47;;;;;;;53.08;24.88;;;-2.30;81.20;;;;;;5030957;28;20405;-63
2024/01/10 04:25:13;;;;;;;50.97;25.10;;;-2.30;81.10;;;;;;5027593;28;20424;-62
2024/01/10 04:27:38;;;;;;;50.15;24.80;;;-2.30;81.10;;;;;;5024099;28;20041;-61
2024/01/10 04:30:05;;;;;;;53.03;25.63;;;-2.20;81.10;;;;;;5028385;28;20110;-62
2024/01/10 04:32:31;;;;;;;57.25;26.02;;;-2.20;81.10;;;;;;5026212;28;20034;-61
2024/01/10 04:34:56;;;;;;;53.45;26.15;;;-2.20;81.10;;;;;;5027998;28;20030;-62
2024/01/10 04:37:22;;;;;;;52.85;26.48;;;-2.20;80.90;;;;;;5023968;28;20029;-63
2024/01/10 04:39:48;;;;;;;52.63;24.98;;;-2.20;80.70;;;;;;5027234;28;20037;-62
2024/01/10 04:42:13;;;;;;;53.00;24.65;;;-2.20;80.90;;;;;;5029420;28;20035;-62
2024/01/10 04:44:39;;;;;;;54.88;26.17;;;-2.20;81.00;;;;;;5022059;28;20532;-61
2024/01/10 04:47:05;;;;;;;55.13;25.85;;;-2.20;81.10;;;;;;5029759;28;20088;-63
2024/01/10 04:49:31;;;;;;;51.65;25.08;;;-2.20;81.10;;;;;;5027022;28;20451;-63
2024/01/10 04:51:57;;;;;;;54.05;24.77;;;-2.10;81.20;;;;;;5030268;28;20033;-60
2024/01/10 04:54:22;;;;;;;51.88;26.30;;;-2.10;81.10;;;;;;5030189;28;20128;-61
2024/01/10 04:56:48;;;;;;;50.38;24.70;;;-2.10;81.10;;;;;;5021149;28;20091;-61
2024/01/10 04:59:14;;;;;;;52.42;26.38;;;-2.10;80.90;;;;;;5028766;28;20044;-62
2024/01/10 05:01:40;;;;;;;57.85;26.08;;;-2.00;81.00;;;;;;5023059;28;20033;-62
2024/01/10 05:04:05;;;;;;;51.90;24.20;;;-2.00;81.00;;;;;;5030468;28;20095;-63
2024/01/10 05:06:31;;;;;;;51.45;25.10;;;-2.00;81.00;;;;;;5029858;28;20033;-62
2024/01/10 05:08:58;;;;;;;54.50;25.83;;;-2.00;81.10;;;;;;5027095;28;20153;-62
2024/01/10 05:11:25;;;;;;;51.85;24.80;;;-2.00;81.10;;;;;;5022916;28;20033;-63
2024/01/10 05:13:51;;;;;;;50.05;25.45;;;-2.00;81.00;;;;;;5019635;28;20034;-63
2024/01/10 05:16:17;;;;;;;57.00;25.67;;;-2.00;81.00;;;;;;5023934;28;20116;-63
2024/01/10 05:18:43;;;;;;;54.60;26.00;;;-1.90;80.80;;;;;;5023457;28;20576;-62
2024/01/10 05:21:08;;;;;;;53.55;25.58;;;-1.90;80.70;;;;;;5025917;28;20021;-63
2024/01/10 05:23:34;;;;;;;52.78;25.30;;;-1.90;80.80;;;;;;5028144;28;20034;-64
2024/01/10 05:26:00;;;;;;;52.47;26.42;;;-1.90;80.90;;;;;;5028313;28;20035;-63
2024/01/10 05:28:25;;;;;;;56.47;25.10;;;-1.90;81.10;;;;;;5028437;28;20033;-62
2024/01/10 05:30:51;;;;;;;55.03;24.92;;;-1.90;81.00;;;;;;5022171;28;20060;-62
2024/01/10 05:33:16;;;;;;;52.70;25.92;;;-1.90;80.90;;;;;;5018364;28;21502;-62
2024/01/10 05:35:42;;;;;;;55.75;25.50;;;-1.90;80.90;;;;;;5018799;28;20038;-62
2024/01/10 05:38:08;;;;;;;52.45;25.42;;;-1.80;80.90;;;;;;5019600;28;20041;-62
2024/01/10 05:40:33;;;;;;;57.10;27.08;;;-1.80;80.70;;;;;;5013492;28;20041;-60
2024/01/10 05:43:01;;;;;;;53.25;25.75;;;-1.80;80.70;;;;;;5019838;28;20030;-62
2024/01/10 05:45:28;;;;;;;56.38;25.63;;;-1.90;80.20;;;;;;5018478;28;20044;-62
2024/01/10 05:47:54;;;;;;;55.78;25.50;;;-1.90;80.40;;;;;;5020739;28;20034;-63
2024/01/10 05:50:19;;;;;;;51.63;24.48;;;-1.90;80.40;;;;;;5029872;28;20037;-62
2024/01/10 05:52:45;;;;;;;52.08;25.05;;;-2.00;80.20;;;;;;5024674;28;20432;-62
2024/01/10 05:55:11;;;;;;;53.50;26.23;;;-2.00;80.20;;;;;;5026285;28;20033;-62
2024/01/10 05:57:37;;;;;;;50.67;24.77;;;-2.00;80.20;;;;;;5021206;28;20405;-62
2024/01/10 06:00:04;;;;;;;51.95;23.95;;;-2.10;80.30;;;;;;5022463;28;20038;-63
2024/01/10 06:02:30;;;;;;;57.75;27.25;;;-2.10;80.50;;;;;;5025194;28;20033;-62
2024/01/10 06:04:56;;;;;;;59.17;27.50;;;-2.10;80.50;;;;;;5024572;28;20060;-61
2024/01/10 06:07:21;;;;;;;58.35;27.90;;;-2.20;80.60;;;;;;5026067;28;20034;-63
2024/01/10 06:09:47;;;;;;;53.53;24.98;;;-2.20;80.70;;;;;;5026486;28;20041;-63
2024/01/10 06:12:13;;;;;;;58.20;26.38;;;-2.20;80.90;;;;;;5021425;28;20045;-62
2024/01/10 06:14:39;;;;;;;60.67;26.33;;;-2.20;81.10;;;;;;5021674;28;20451;-62
2024/01/10 06:17:04;;;;;;;57.75;26.23;;;-2.20;81.20;;;;;;5023744;28;20034;-63
2024/01/10 06:19:33;;;;;;;55.80;25.10;;;-2.20;81.20;;;;;;5020878;28;20040;-63
2024/01/10 06:21:59;;;;;;;60.50;27.33;;;-2.20;81.10;;;;;;5023216;28;20048;-63
2024/01/10 06:24:26;;;;;;;61.13;26.95;;;-2.20;81.10;;;;;;5024896;28;20045;-63
2024/01/10 06:26:51;;;;;;;59.30;28.48;;;-2.20;80.90;;;;;;5026381;28;20092;-63
2024/01/10 06:29:18;;;;;;;57.88;27.40;;;-2.20;80.90;;;;;;5023530;28;20045;-63
2024/01/10 06:31:44;;;;;;;57.97;27.15;;;-2.20;81.10;;;;;;5024852;28;20571;-62
2024/01/10 06:34:09;;;;;;;56.17;27.02;;;-2.20;82.00;;;;;;5025632;28;20037;-62
2024/01/10 06:36:35;;;;;;;64.65;26.90;;;-2.20;81.30;;;;;;5024926;28;20072;-63
2024/01/10 06:39:01;;;;;;;58.60;27.30;;;-2.30;81.10;;;;;;5025664;28;20044;-62
2024/01/10 06:41:27;;;;;;;55.92;26.75;;;-2.30;81.90;;;;;;5025154;28;20129;-62
2024/01/10 06:43:53;;;;;;;59.88;26.80;;;-2.30;81.20;;;;;;5025835;28;20542;-63
2024/01/10 06:46:19;;;;;;;57.70;27.17;;;-2.30;81.40;;;;;;5021978;28;21151;-63
2024/01/10 06:48:45;;;;;;;61.10;27.20;;;-2.30;81.50;;;;;;5019961;28;20508;-61
2024/01/10 06:51:13;;;;;;;58.10;27.02;;;-2.40;81.40;;;;;;5022572;28;20033;-62
2024/01/10 06:53:40;;;;;;;62.45;27.70;;;-2.40;81.40;;;;;;5025857;28;20080;-62
2024/01/10 06:56:06;;;;;;;56.88;25.58;;;-2.40;81.40;;;;;;5025967;28;20025;-62
2024/01/10 06:58:32;;;;;;;58.03;26.23;;;-2.40;81.60;;;;;;5028183;28;20033;-62
2024/01/10 07:01:00;;;;;;;55.45;26.80;;;-2.40;81.80;;;;;;5020929;28;20124;-63
2024/01/10 07:03:27;;;;;;;57.92;26.63;;;-2.40;82.00;;;;;;5022233;28;20450;-63
2024/01/10 07:05:52;;;;;;;56.95;27.00;;;-2.30;82.20;;;;;;5021135;28;20081;-63
2024/01/10 07:08:18;;;;;;;61.50;28.08;;;-2.30;82.20;;;;;;5025290;28;20053;-61
2024/01/10 07:10:44;;;;;;;62.63;27.70;;;-2.30;82.10;;;;;;5025958;28;20075;-63
2024/01/10 07:13:10;;;;;;;57.70;25.90;;;-2.30;81.80;;;;;;5024262;28;20025;-62
2024/01/10 07:15:37;;;;;;;55.80;26.17;;;-2.30;81.80;;;;;;5027255;28;20095;-62
2024/01/10 07:18:02;;;;;;;56.88;27.65;;;-2.30;81.80;;;;;;5025089;28;20025;-62
2024/01/10 07:20:28;;;;;;;61.78;27.05;;;-2.30;82.00;;;;;;5013234;28;20060;-63
2024/01/10 07:22:54;;;;;;;56.65;26.02;;;-2.30;82.10;;;;;;5018779;28;20072;-61
2024/01/10 07:25:22;;;;;;;58.95;27.60;;;-2.20;82.10;;;;;;5022424;28;20416;-62
2024/01/10 07:27:48;;;;;;;57.25;26.38;;;-2.20;82.30;;;;;;5024361;28;20040;-62
2024/01/10 07:30:13;;;;;;;59.22;26.08;;;-2.20;82.30;;;;;;5022496;28;20041;-62
2024/01/10 07:32:48;;;;;;;60.38;27.05;;;-2.10;82.20;;;;;;5023542;28;20037;-60
2024/01/10 07:35:16;;;;;;;;;;;-2.10;82.00;;;;;;5025412;28;20048;-62
2024/01/10 07:37:42;;;;;;;61.25;26.00;;;-2.10;82.00;;;;;;5021890;28;19917;-61
2024/01/10 07:40:08;;;;;;;60.70;27.38;;;-2.10;81.90;;;;;;5026467;28;20033;-61
2024/01/10 07:42:35;;;;;;;63.00;28.02;;;-2.00;82.00;;;;;;5024743;28;20580;-60
2024/01/10 07:45:04;;;;;;;60.33;27.15;;;-2.00;81.90;;;;;;5025050;28;20509;-61
2024/01/10 07:47:37;;;;;;;67.63;28.52;;;-2.00;81.70;;;;;;5021999;28;20045;-58
2024/01/10 07:50:06;;;;;;;61.95;27.95;;;-2.00;81.80;;;;;;5025346;28;20040;-60
2024/01/10 07:52:32;;;;;;;68.00;28.95;;;-2.00;81.60;;;;;;5025078;28;20044;-64
2024/01/10 07:54:58;;;;;;;68.72;29.77;;;-2.00;81.60;;;;;;5026820;28;20026;-62
2024/01/10 07:57:24;;;;;;;67.28;28.38;;;-2.00;81.60;;;;;;5025029;28;20037;-61
2024/01/10 07:59:49;;;;;;;68.63;30.80;;;-1.90;81.60;;;;;;5023571;28;20096;-61
2024/01/10 08:02:15;;;;;;;65.85;29.10;;;-1.90;81.60;;;;;;5025680;28;20033;-59
2024/01/10 08:04:40;;;;;;;65.63;29.42;;;-1.90;82.00;;;;;;5026558;28;20073;-59
2024/01/10 08:07:06;;;;;;;61.90;29.00;;;-1.90;82.00;;;;;;5017901;28;20040;-60
2024/01/10 08:09:32;;;;;;;67.07;29.23;;;-1.90;82.00;;;;;;5027252;28;20341;-61
2024/01/10 08:11:58;;;;;;;61.15;27.52;;;-1.90;82.00;;;;;;5021314;28;20448;-59
2024/01/10 08:14:24;;;;;;;65.47;29.73;;;-1.80;82.30;;;;;;5028539;28;20037;-59
2024/01/10 08:16:50;;;;;;;65.35;28.83;;;-1.80;82.40;;;;;;5024489;28;20397;-60
2024/01/10 08:19:16;;;;;;;60.63;27.75;;;-1.80;82.30;;;;;;5026885;28;20480;-60
2024/01/10 08:21:42;;;;;;;64.18;28.30;;;-1.70;82.20;;;;;;5028036;28;20029;-61
2024/01/10 08:24:07;;;;;;;60.72;28.25;;;-1.70;82.30;;;;;;5022363;28;20417;-61
2024/01/10 08:26:33;;;;;;;64.05;28.60;;;-1.70;82.50;;;;;;5023033;28;20034;-61
2024/01/10 08:28:58;;;;;;;67.93;29.60;;;-1.70;82.30;;;;;;5026628;28;20513;-61
2024/01/10 08:31:24;;;;;;;59.13;27.17;;;-1.60;82.30;;;;;;5024595;28;20057;-59
2024/01/10 08:33:49;;;;;;;67.40;28.67;;;-1.60;82.10;;;;;;5025277;28;20038;-61
2024/01/10 08:36:15;;;;;;;64.93;29.10;;;-1.60;82.10;;;;;;5020357;28;20040;-59
2024/01/10 08:38:41;;;;;;;63.95;30.08;;;-1.60;82.30;;;;;;5024960;28;20033;-61
2024/01/10 08:41:11;;;;;;;56.25;28.30;;;-1.60;82.20;;;;;;5027497;28;20138;-60
2024/01/10 08:43:40;;;;;;;64.75;29.45;;;-1.50;82.30;;;;;;5025000;28;20029;-61
2024/01/10 08:46:09;;;;;;;53.92;26.20;;;-1.50;82.30;;;;;;5026881;28;20369;-61
2024/01/10 08:48:36;;;;;;;60.38;29.20;;;-1.40;82.30;;;;;;5017263;28;20046;-60
2024/01/10 08:51:02;;;;;;;64.53;28.80;;;-1.40;82.00;;;;;;5029469;28;20030;-61
2024/01/10 08:53:28;;;;;;;60.63;28.63;;;-1.40;81.80;;;;;;5031530;28;20417;-61
2024/01/10 08:55:53;;;;;;;61.17;29.75;;;-1.40;81.90;;;;;;5026412;28;20042;-60
2024/01/10 08:58:19;;;;;;;61.80;27.92;;;-1.40;82.20;;;;;;5025651;28;20071;-60
2024/01/10 09:00:45;;;;;;;64.82;28.85;;;-1.40;82.20;;;;;;5028112;28;20029;-58
2024/01/10 09:03:10;;;;;;;60.22;27.83;;;-1.40;82.20;;;;;;5027296;28;20037;-60
2024/01/10 09:05:36;;;;;;;63.35;27.88;;;-1.30;82.40;;;;;;5027661;28;20029;-59
2024/01/10 09:08:02;;;;;;;58.10;27.35;;;-1.30;82.50;;;;;;5027394;28;20505;-61
2024/01/10 09:10:28;;;;;;;60.53;27.42;;;-1.30;82.50;;;;;;5027436;28;20401;-59
2024/01/10 09:12:54;;;;;;;65.68;30.27;;;-1.30;82.10;;;;;;5028068;28;20058;-61
2024/01/10 09:15:19;;;;;;;62.80;29.38;;;-1.30;81.80;;;;;;5029943;28;20034;-60
2024/01/10 09:17:45;;;;;;;65.00;29.60;;;-1.30;81.60;;;;;;5027074;28;20038;-59
2024/01/10 09:20:12;;;;;;;62.35;28.75;;;-1.30;81.90;;;;;;5026561;28;20029;-62
2024/01/10 09:22:38;;;;;;;63.60;29.23;;;-1.30;82.20;;;;;;5024838;28;20033;-61
2024/01/10 09:25:05;;;;;;;56.83;27.63;;;-1.30;82.30;;;;;;5025850;28;20053;-61
2024/01/10 09:27:33;;;;;;;59.97;27.77;;;-1.30;82.30;;;;;;5027017;28;20091;-60
2024/01/10 09:29:59;;;;;;;64.00;29.17;;;-1.20;82.60;;;;;;5026483;28;20562;-61
2024/01/10 09:32:25;;;;;;;55.30;27.10;;;-1.20;82.60;;;;;;5022624;28;20045;-61
2024/01/10 09:34:51;;;;;;;62.92;29.23;;;-1.20;82.50;;;;;;5028294;28;20086;-61
2024/01/10 09:37:16;;;;;;;60.88;29.65;;;-1.10;82.60;;;;;;5026718;28;20181;-62
2024/01/10 09:39:42;;;;;;;59.75;28.33;;;-1.10;82.50;;;;;;5025388;28;20374;-61
2024/01/10 09:42:08;;;;;;;60.03;28.63;;;-1.10;82.50;;;;;;5027176;28;20108;-61
2024/01/10 09:44:34;;;;;;;59.17;27.25;;;-1.10;82.70;;;;;;5024732;28;20037;-61
2024/01/10 09:47:02;;;;;;;61.78;28.73;;;-1.00;82.30;;;;;;5026608;28;20299;-61
2024/01/10 09:49:27;;;;;;;60.35;27.95;;;-1.00;82.20;;;;;;5023428;28;20041;-61
2024/01/10 09:52:07;;;;;;;62.90;30.42;;;-1.00;82.40;;;;;;5028480;28;20048;-62
2024/01/10 09:54:35;;;;;;;63.97;29.70;;;-0.90;82.30;;;;;;5026463;28;20061;-61
2024/01/10 09:57:01;;;;;;;63.03;29.67;;;-0.90;82.10;;;;;;5026186;28;20041;-61
2024/01/10 09:59:27;;;;;;;66.85;29.05;;;-0.90;81.80;;;;;;5027569;28;20080;-62
2024/01/10 10:01:53;;;;;;;62.95;29.92;;;-0.90;81.60;;;;;;5025065;28;20034;-60
2024/01/10 10:04:20;;;;;;;59.47;28.35;;;-0.90;81.70;;;;;;5022296;28;20544;-61
2024/01/10 10:06:46;;;;;;;64.97;28.80;;;-0.90;82.00;;;;;;5025844;28;20045;-61
2024/01/10 10:09:12;;;;;;;60.03;28.38;;;-0.90;81.90;;;;;;5026505;28;20215;-60
2024/01/10 10:11:38;;;;;;;61.60;28.25;;;-0.90;82.10;;;;;;5024699;28;20120;-61
2024/01/10 10:14:17;;;;;;;55.22;26.98;;;-0.90;82.40;;;;;;5025684;28;20117;-60
2024/01/10 10:16:43;;;;;;;58.35;27.60;;;-0.80;82.40;;;;;;5026246;28;20535;-59
2024/01/10 10:19:11;;;;;;;56.78;27.48;;;-0.80;82.50;;;;;;5027650;28;20631;-62
2024/01/10 10:21:37;;;;;;;59.28;28.00;;;-0.80;82.60;;;;;;5028088;28;20458;-61
2024/01/10 10:24:04;;;;;;;56.55;27.80;;;-0.70;82.70;;;;;;5026617;28;20057;-61
2024/01/10 10:26:33;;;;;;;61.15;29.45;;;-0.70;82.60;;;;;;5026497;28;20064;-60
2024/01/10 10:28:59;;;;;;;53.33;26.85;;;-0.60;82.40;;;;;;5027169;28;20037;-61
2024/01/10 10:31:25;;;;;;;58.15;26.98;;;-0.60;82.00;;;;;;5027054;28;20025;-60
2024/01/10 10:33:51;;;;;;;58.00;26.85;;;-0.60;82.10;;;;;;5027377;28;20072;-61
2024/01/10 10:36:17;;;;;;;56.00;27.17;;;-0.60;82.30;;;;;;5026593;28;20029;-60
2024/01/10 10:38:43;;;;;;;57.78;26.90;;;-0.50;82.30;;;;;;5025521;28;20112;-58
2024/01/10 10:41:10;;;;;;;57.08;27.92;;;-0.50;82.30;;;;;;5024821;28;20034;-61
2024/01/10 10:43:37;;;;;;;53.75;25.50;;;-0.40;82.40;;;;;;5023154;28;20034;-61
2024/01/10 10:46:05;;;;;;;60.72;28.95;;;-0.40;82.40;;;;;;5019857;28;20076;-60
2024/01/10 10:48:34;;;;;;;56.03;27.05;;;-0.40;82.50;;;;;;5020888;28;20133;-61
2024/01/10 10:51:14;;;;;;;56.33;26.80;;;-0.30;82.50;;;;;;5018080;28;20084;-61
2024/01/10 10:53:43;;;;;;;57.00;27.73;;;-0.30;83.20;;;;;;5020592;28;20029;-59
2024/01/10 10:56:09;;;;;;;55.65;26.50;;;-0.20;82.30;;;;;;5021705;28;20067;-59
2024/01/10 10:58:39;;;;;;;57.88;27.58;;;-0.20;82.10;;;;;;5024969;28;20046;-61
2024/01/10 11:01:09;;;;;;;59.53;27.70;;;-0.20;82.20;;;;;;5023241;28;20033;-61
2024/01/10 11:03:47;;;;;;;56.13;26.92;;;-0.20;82.10;;;;;;5023423;28;20559;-61
2024/01/10 11:06:13;;;;;;;55.97;26.27;;;-0.10;82.10;;;;;;5023873;28;20579;-61
2024/01/10 11:08:44;;;;;;;57.33;26.60;;;-0.10;82.10;;;;;;5025244;28;20120;-61
2024/01/10 11:11:47;;;;;;;55.63;26.85;;;0.00;82.30;;;;;;5024479;28;20144;-57
2024/01/10 11:14:36;;;;;;;63.72;27.85;;;0.00;82.30;;;;;;5025219;28;20037;-59
2024/01/10 11:17:25;;;;;;;58.50;26.67;;;0.10;82.00;;;;;;5029022;28;20034;-61
2024/01/10 11:20:14;;;;;;;61.22;27.88;;;0.10;81.80;;;;;;5025410;28;20091;-60
2024/01/10 11:23:28;;;;;;;60.10;27.27;;;0.20;82.10;;;;;;5025310;28;20096;-61
2024/01/10 11:25:54;;;;;;;59.33;27.50;;;0.20;82.30;;;;;;5026243;28;20109;-59
2024/01/10 11:28:20;;;;;;;56.22;26.63;;;0.20;82.40;;;;;;5023860;28;20505;-61
2024/01/10 11:30:53;;;;;;;58.60;27.35;;;0.30;82.20;;;;;;5025739;28;20040;-60
2024/01/10 11:33:21;;;;;;;61.90;26.83;;;0.40;82.10;;;;;;5026874;28;20040;-61
2024/01/10 11:36:19;;;;;;;61.55;27.80;;;0.40;82.10;;;;;;5023185;28;20036;-60
2024/01/10 11:39:04;;;;;;;61.65;27.40;;;0.50;81.90;;;;;;5023210;28;20026;-61
2024/01/10 11:41:38;;;;;;;60.65;27.10;;;0.50;81.80;;;;;;5021085;28;20030;-60
2024/01/10 11:44:10;;;;;;;59.95;26.05;;;0.60;81.80;;;;;;5014604;28;20045;-61
2024/01/10 11:46:50;;;;;;;60.58;27.65;;;0.60;81.80;;;;;;5018190;28;20037;-60
2024/01/10 11:49:18;;;;;;;61.70;28.35;;;0.60;81.40;;;;;;5022854;28;20401;-60
2024/01/10 11:51:49;;;;;;;64.32;27.65;;;0.60;81.30;;;;;;5032770;28;20475;-61
2024/01/10 11:54:37;;;;;;;59.20;26.17;;;0.60;81.30;;;;;;5027193;28;20700;-59
2024/01/10 11:57:08;;;;;;;62.15;27.25;;;0.60;81.80;;;;;;5025411;28;20038;-59
2024/01/10 11:59:34;;;;;;;68.05;28.20;;;0.60;81.80;;;;;;5025595;28;20416;-61
2024/01/10 12:02:01;;;;;;;58.80;26.38;;;0.60;81.30;;;;;;5027471;28;20123;-61
2024/01/10 12:04:29;;;;;;;61.97;26.58;;;0.60;81.30;;;;;;5021831;28;20404;-60
2024/01/10 12:06:56;;;;;;;58.97;25.05;;;0.60;81.60;;;;;;5026004;28;20032;-59
2024/01/10 12:09:24;;;;;;;57.17;24.83;;;0.60;81.80;;;;;;5025882;28;20068;-61
2024/01/10 12:11:50;;;;;;;64.43;27.13;;;0.60;82.00;;;;;;5020347;28;20064;-62
2024/01/10 12:14:15;;;;;;;63.85;27.48;;;0.70;82.10;;;;;;5028510;28;20076;-59
2024/01/10 12:16:41;;;;;;;63.67;27.33;;;0.70;81.80;;;;;;5021990;28;20061;-60
2024/01/10 12:19:07;;;;;;;64.18;26.42;;;0.70;81.70;;;;;;5029180;28;22183;-61
2024/01/10 12:21:32;;;;;;;59.95;25.92;;;0.70;81.80;;;;;;5026969;28;20054;-61
2024/01/10 12:23:58;;;;;;;59.35;25.98;;;0.70;82.00;;;;;;5027963;28;20091;-61
2024/01/10 12:26:24;;;;;;;58.83;26.70;;;0.70;82.00;;;;;;5029260;28;20281;-60